sensor_id;sensor_type;location;lat;lon;timestamp;pressure;altitude;pressure_sealevel;temperature;humidity
68873;BME280;55907;50.806;12.882;2024-03-02T00:02:02;963.2;;;9.3;85.0
68873;BME280;55907;50.806;12.882;2024-03-02T00:05:04;963.3;;;9.3;85.7
68873;BME280;55907;50.806;12.882;2024-03-02T00:08:05;963.2;;;9.3;85.4
68873;BME280;55907;50.806;12.882;2024-03-02T00:11:04;963.2;;;9.3;85.5
68873;BME280;55907;50.806;12.882;2024-03-02T00:14:05;963.2;;;9.3;85.8
68873;BME280;55907;50.806;12.882;2024-03-02T00:17:15;963.1;;;9.2;85.9
68873;BME280;55907;50.806;12.882;2024-03-02T00:20:09;963.1;;;9.2;85.8
68873;BME280;55907;50.806;12.882;2024-03-02T00:23:09;963.1;;;9.3;85.8
68873;BME280;55907;50.806;12.882;2024-03-02T00:26:11;963.1;;;9.3;85.8
68873;BME280;55907;50.806;12.882;2024-03-02T00:29:09;963.1;;;9.3;85.8
68873;BME280;55907;50.806;12.882;2024-03-02T00:32:12;963.0;;;9.3;86.1
68873;BME280;55907;50.806;12.882;2024-03-02T00:35:10;963.0;;;9.3;86.5
68873;BME280;55907;50.806;12.882;2024-03-02T00:38:12;963.0;;;9.3;86.6
68873;BME280;55907;50.806;12.882;2024-03-02T00:41:17;963.0;;;9.3;86.2
68873;BME280;55907;50.806;12.882;2024-03-02T00:44:15;963.0;;;9.3;86.4
68873;BME280;55907;50.806;12.882;2024-03-02T00:47:13;963.1;;;9.3;86.4
68873;BME280;55907;50.806;12.882;2024-03-02T00:50:14;963.1;;;9.2;86.6
68873;BME280;55907;50.806;12.882;2024-03-02T00:53:16;963.1;;;9.2;86.2
68873;BME280;55907;50.806;12.882;2024-03-02T00:56:16;963.1;;;9.2;86.2
68873;BME280;55907;50.806;12.882;2024-03-02T00:59:17;963.1;;;9.2;85.8
68873;BME280;55907;50.806;12.882;2024-03-02T01:02:17;963.1;;;9.2;86.0
68873;BME280;55907;50.806;12.882;2024-03-02T01:05:18;963.1;;;9.2;85.9
68873;BME280;55907;50.806;12.882;2024-03-02T01:08:18;963.1;;;9.1;86.8
68873;BME280;55907;50.806;12.882;2024-03-02T01:11:20;963.1;;;9.1;86.8
68873;BME280;55907;50.806;12.882;2024-03-02T01:14:20;963.0;;;9.0;87.0
68873;BME280;55907;50.806;12.882;2024-03-02T01:17:21;963.0;;;9.0;86.5
68873;BME280;55907;50.806;12.882;2024-03-02T01:20:21;963.0;;;9.0;86.8
68873;BME280;55907;50.806;12.882;2024-03-02T01:23:23;963.0;;;9.0;87.1
68873;BME280;55907;50.806;12.882;2024-03-02T01:26:23;962.9;;;9.0;87.2
68873;BME280;55907;50.806;12.882;2024-03-02T01:29:24;962.9;;;8.9;88.2
68873;BME280;55907;50.806;12.882;2024-03-02T01:32:24;963.0;;;8.9;88.4
68873;BME280;55907;50.806;12.882;2024-03-02T01:35:25;963.0;;;8.9;87.9
68873;BME280;55907;50.806;12.882;2024-03-02T01:38:26;962.9;;;8.9;88.0
68873;BME280;55907;50.806;12.882;2024-03-02T01:41:27;962.9;;;9.0;87.4
68873;BME280;55907;50.806;12.882;2024-03-02T01:44:27;962.8;;;9.0;87.4
68873;BME280;55907;50.806;12.882;2024-03-02T01:47:28;962.8;;;9.0;86.7
68873;BME280;55907;50.806;12.882;2024-03-02T01:50:31;962.8;;;9.0;86.9
68873;BME280;55907;50.806;12.882;2024-03-02T01:53:30;962.8;;;8.9;87.1
68873;BME280;55907;50.806;12.882;2024-03-02T01:56:30;962.8;;;8.9;86.9
68873;BME280;55907;50.806;12.882;2024-03-02T01:59:31;962.8;;;8.9;87.2
68873;BME280;55907;50.806;12.882;2024-03-02T02:02:32;962.7;;;8.9;87.0
68873;BME280;55907;50.806;12.882;2024-03-02T02:05:33;962.8;;;8.9;87.3
68873;BME280;55907;50.806;12.882;2024-03-02T02:08:33;962.8;;;8.9;86.8
68873;BME280;55907;50.806;12.882;2024-03-02T02:11:34;962.8;;;8.9;87.1
68873;BME280;55907;50.806;12.882;2024-03-02T02:14:35;962.8;;;8.9;86.8
68873;BME280;55907;50.806;12.882;2024-03-02T02:17:36;962.7;;;9.0;86.5
68873;BME280;55907;50.806;12.882;2024-03-02T02:20:38;962.8;;;9.0;86.7
68873;BME280;55907;50.806;12.882;2024-03-02T02:23:37;962.7;;;9.0;86.6
68873;BME280;55907;50.806;12.882;2024-03-02T02:26:38;962.7;;;9.0;86.4
68873;BME280;55907;50.806;12.882;2024-03-02T02:29:39;962.7;;;9.0;86.7
68873;BME280;55907;50.806;12.882;2024-03-02T02:32:39;962.6;;;8.9;86.9
68873;BME280;55907;50.806;12.882;2024-03-02T02:35:40;962.6;;;8.9;87.0
68873;BME280;55907;50.806;12.882;2024-03-02T02:38:43;962.7;;;8.9;87.1
68873;BME280;55907;50.806;12.882;2024-03-02T02:41:42;962.7;;;8.9;86.9
68873;BME280;55907;50.806;12.882;2024-03-02T02:44:42;962.7;;;9.0;86.7
68873;BME280;55907;50.806;12.882;2024-03-02T02:47:44;962.8;;;9.0;86.6
68873;BME280;55907;50.806;12.882;2024-03-02T02:50:44;962.8;;;9.0;86.4
68873;BME280;55907;50.806;12.882;2024-03-02T02:53:45;962.8;;;9.0;86.3
68873;BME280;55907;50.806;12.882;2024-03-02T02:56:45;962.8;;;9.0;86.3
68873;BME280;55907;50.806;12.882;2024-03-02T02:59:46;962.8;;;9.0;86.1
68873;BME280;55907;50.806;12.882;2024-03-02T03:02:48;962.8;;;9.1;86.1
68873;BME280;55907;50.806;12.882;2024-03-02T03:05:48;962.8;;;9.1;86.0
68873;BME280;55907;50.806;12.882;2024-03-02T03:08:49;962.8;;;9.0;86.5
68873;BME280;55907;50.806;12.882;2024-03-02T03:11:49;962.8;;;9.0;86.5
68873;BME280;55907;50.806;12.882;2024-03-02T03:14:50;962.7;;;8.8;87.2
68873;BME280;55907;50.806;12.882;2024-03-02T03:17:51;962.7;;;8.7;87.6
68873;BME280;55907;50.806;12.882;2024-03-02T03:20:52;962.7;;;8.7;87.9
68873;BME280;55907;50.806;12.882;2024-03-02T03:23:52;962.7;;;8.7;87.6
68873;BME280;55907;50.806;12.882;2024-03-02T03:26:53;962.7;;;8.7;87.6
68873;BME280;55907;50.806;12.882;2024-03-02T03:29:54;962.7;;;8.7;87.5
68873;BME280;55907;50.806;12.882;2024-03-02T03:32:55;962.8;;;8.7;87.9
68873;BME280;55907;50.806;12.882;2024-03-02T03:38:56;962.8;;;8.7;88.5
68873;BME280;55907;50.806;12.882;2024-03-02T03:41:57;962.8;;;8.7;88.4
68873;BME280;55907;50.806;12.882;2024-03-02T03:44:58;962.8;;;8.7;88.2
68873;BME280;55907;50.806;12.882;2024-03-02T03:47:59;962.8;;;8.7;87.9
68873;BME280;55907;50.806;12.882;2024-03-02T03:50:59;962.9;;;8.7;88.4
68873;BME280;55907;50.806;12.882;2024-03-02T03:54:00;962.9;;;8.7;88.8
68873;BME280;55907;50.806;12.882;2024-03-02T03:57:01;962.9;;;8.7;88.8
68873;BME280;55907;50.806;12.882;2024-03-02T04:00:02;963.0;;;8.7;88.8
68873;BME280;55907;50.806;12.882;2024-03-02T04:03:03;963.0;;;8.7;88.8
68873;BME280;55907;50.806;12.882;2024-03-02T04:06:04;963.0;;;8.7;88.5
68873;BME280;55907;50.806;12.882;2024-03-02T04:09:04;963.0;;;8.7;88.9
68873;BME280;55907;50.806;12.882;2024-03-02T04:12:05;963.0;;;8.7;88.9
68873;BME280;55907;50.806;12.882;2024-03-02T04:15:06;963.0;;;8.7;88.9
68873;BME280;55907;50.806;12.882;2024-03-02T04:18:06;963.0;;;8.7;88.9
68873;BME280;55907;50.806;12.882;2024-03-02T04:21:07;963.0;;;8.8;88.5
68873;BME280;55907;50.806;12.882;2024-03-02T04:24:08;963.0;;;8.8;88.2
68873;BME280;55907;50.806;12.882;2024-03-02T04:27:09;963.1;;;8.8;88.1
68873;BME280;55907;50.806;12.882;2024-03-02T04:30:10;963.1;;;8.9;87.7
68873;BME280;55907;50.806;12.882;2024-03-02T04:33:10;963.1;;;8.9;87.4
68873;BME280;55907;50.806;12.882;2024-03-02T04:36:11;963.1;;;8.9;87.7
68873;BME280;55907;50.806;12.882;2024-03-02T04:39:12;963.2;;;8.9;87.6
68873;BME280;55907;50.806;12.882;2024-03-02T04:42:12;963.3;;;8.9;87.5
68873;BME280;55907;50.806;12.882;2024-03-02T04:45:13;963.3;;;9.0;87.2
68873;BME280;55907;50.806;12.882;2024-03-02T04:51:15;963.4;;;8.9;87.2
68873;BME280;55907;50.806;12.882;2024-03-02T04:54:16;963.4;;;8.9;87.2
68873;BME280;55907;50.806;12.882;2024-03-02T04:57:16;963.4;;;9.0;86.6
68873;BME280;55907;50.806;12.882;2024-03-02T05:00:17;963.4;;;9.0;86.7
68873;BME280;55907;50.806;12.882;2024-03-02T05:03:18;963.5;;;9.0;86.4
68873;BME280;55907;50.806;12.882;2024-03-02T05:06:18;963.5;;;9.0;86.8
68873;BME280;55907;50.806;12.882;2024-03-02T05:09:19;963.5;;;9.0;86.4
68873;BME280;55907;50.806;12.882;2024-03-02T05:12:20;963.5;;;9.0;86.7
68873;BME280;55907;50.806;12.882;2024-03-02T05:15:21;963.6;;;9.0;87.1
68873;BME280;55907;50.806;12.882;2024-03-02T05:18:21;963.6;;;9.0;86.9
68873;BME280;55907;50.806;12.882;2024-03-02T05:21:22;963.6;;;9.0;87.1
68873;BME280;55907;50.806;12.882;2024-03-02T05:24:23;963.6;;;9.0;87.5
68873;BME280;55907;50.806;12.882;2024-03-02T05:27:24;963.6;;;8.9;87.1
68873;BME280;55907;50.806;12.882;2024-03-02T05:30:24;963.6;;;8.9;87.0
68873;BME280;55907;50.806;12.882;2024-03-02T05:33:25;963.6;;;9.0;87.1
68873;BME280;55907;50.806;12.882;2024-03-02T05:36:26;963.6;;;9.0;86.4
68873;BME280;55907;50.806;12.882;2024-03-02T05:39:27;963.6;;;9.1;86.3
68873;BME280;55907;50.806;12.882;2024-03-02T05:42:28;963.7;;;9.1;86.0
68873;BME280;55907;50.806;12.882;2024-03-02T05:45:28;963.7;;;9.1;85.8
68873;BME280;55907;50.806;12.882;2024-03-02T05:48:29;963.7;;;9.1;85.7
68873;BME280;55907;50.806;12.882;2024-03-02T05:51:30;963.7;;;9.1;85.6
68873;BME280;55907;50.806;12.882;2024-03-02T05:54:31;963.8;;;9.1;85.7
68873;BME280;55907;50.806;12.882;2024-03-02T05:57:31;963.8;;;9.1;85.8
68873;BME280;55907;50.806;12.882;2024-03-02T06:00:33;963.8;;;9.1;85.6
68873;BME280;55907;50.806;12.882;2024-03-02T06:03:33;963.8;;;9.1;85.6
68873;BME280;55907;50.806;12.882;2024-03-02T06:06:34;963.9;;;9.1;85.5
68873;BME280;55907;50.806;12.882;2024-03-02T06:09:34;963.9;;;9.2;85.3
68873;BME280;55907;50.806;12.882;2024-03-02T06:12:35;963.9;;;9.2;85.4
68873;BME280;55907;50.806;12.882;2024-03-02T06:15:36;964.0;;;9.2;85.0
68873;BME280;55907;50.806;12.882;2024-03-02T06:18:37;964.0;;;9.2;85.0
68873;BME280;55907;50.806;12.882;2024-03-02T06:21:37;964.1;;;9.2;85.1
68873;BME280;55907;50.806;12.882;2024-03-02T06:24:38;964.0;;;9.2;85.4
68873;BME280;55907;50.806;12.882;2024-03-02T06:27:39;964.0;;;9.1;86.0
68873;BME280;55907;50.806;12.882;2024-03-02T06:30:40;964.1;;;9.1;86.0
68873;BME280;55907;50.806;12.882;2024-03-02T06:33:40;964.0;;;9.2;85.7
68873;BME280;55907;50.806;12.882;2024-03-02T06:36:41;964.1;;;9.2;86.0
68873;BME280;55907;50.806;12.882;2024-03-02T06:39:43;964.1;;;9.2;85.9
68873;BME280;55907;50.806;12.882;2024-03-02T06:42:43;964.1;;;9.2;85.9
68873;BME280;55907;50.806;12.882;2024-03-02T06:45:43;964.2;;;9.2;85.6
68873;BME280;55907;50.806;12.882;2024-03-02T06:48:44;964.2;;;9.2;85.3
68873;BME280;55907;50.806;12.882;2024-03-02T06:51:45;964.2;;;9.3;85.3
68873;BME280;55907;50.806;12.882;2024-03-02T06:54:46;964.2;;;9.3;85.4
68873;BME280;55907;50.806;12.882;2024-03-02T06:57:46;964.2;;;9.2;85.5
68873;BME280;55907;50.806;12.882;2024-03-02T07:00:47;964.2;;;9.2;85.2
68873;BME280;55907;50.806;12.882;2024-03-02T07:03:48;964.2;;;9.3;84.6
68873;BME280;55907;50.806;12.882;2024-03-02T07:06:49;964.1;;;9.4;84.3
68873;BME280;55907;50.806;12.882;2024-03-02T07:09:49;964.2;;;9.4;83.8
68873;BME280;55907;50.806;12.882;2024-03-02T07:12:50;964.1;;;9.5;82.9
68873;BME280;55907;50.806;12.882;2024-03-02T07:15:51;964.1;;;9.6;82.6
68873;BME280;55907;50.806;12.882;2024-03-02T07:18:52;964.2;;;9.7;82.8
68873;BME280;55907;50.806;12.882;2024-03-02T07:21:52;964.2;;;9.8;82.6
68873;BME280;55907;50.806;12.882;2024-03-02T07:24:53;964.2;;;9.9;82.8
68873;BME280;55907;50.806;12.882;2024-03-02T07:27:54;964.2;;;10.0;82.5
68873;BME280;55907;50.806;12.882;2024-03-02T07:30:58;964.3;;;10.0;82.6
68873;BME280;55907;50.806;12.882;2024-03-02T07:33:55;964.3;;;10.1;82.2
68873;BME280;55907;50.806;12.882;2024-03-02T07:36:56;964.3;;;10.1;81.7
68873;BME280;55907;50.806;12.882;2024-03-02T07:39:57;964.2;;;10.2;81.4
68873;BME280;55907;50.806;12.882;2024-03-02T07:42:58;964.3;;;10.3;80.8
68873;BME280;55907;50.806;12.882;2024-03-02T07:45:58;964.3;;;10.4;80.2
68873;BME280;55907;50.806;12.882;2024-03-02T07:48:59;964.3;;;10.5;79.4
68873;BME280;55907;50.806;12.882;2024-03-02T07:52:00;964.3;;;10.6;79.0
68873;BME280;55907;50.806;12.882;2024-03-02T07:55:01;964.4;;;10.7;78.9
68873;BME280;55907;50.806;12.882;2024-03-02T07:58:02;964.4;;;10.7;77.7
68873;BME280;55907;50.806;12.882;2024-03-02T08:01:02;964.4;;;10.7;77.9
68873;BME280;55907;50.806;12.882;2024-03-02T08:04:06;964.4;;;10.7;78.7
68873;BME280;55907;50.806;12.882;2024-03-02T08:07:04;964.5;;;10.7;78.5
68873;BME280;55907;50.806;12.882;2024-03-02T08:10:05;964.4;;;10.7;78.5
68873;BME280;55907;50.806;12.882;2024-03-02T08:13:05;964.4;;;10.7;78.6
68873;BME280;55907;50.806;12.882;2024-03-02T08:16:06;964.5;;;10.6;78.7
68873;BME280;55907;50.806;12.882;2024-03-02T08:19:07;964.5;;;10.6;78.8
68873;BME280;55907;50.806;12.882;2024-03-02T08:22:08;964.5;;;10.6;78.6
68873;BME280;55907;50.806;12.882;2024-03-02T08:25:10;964.5;;;10.6;78.6
68873;BME280;55907;50.806;12.882;2024-03-02T08:28:09;964.5;;;10.7;78.1
68873;BME280;55907;50.806;12.882;2024-03-02T08:31:10;964.5;;;10.6;77.9
68873;BME280;55907;50.806;12.882;2024-03-02T08:34:10;964.5;;;10.6;77.4
68873;BME280;55907;50.806;12.882;2024-03-02T08:37:11;964.5;;;10.7;77.6
68873;BME280;55907;50.806;12.882;2024-03-02T08:40:12;964.5;;;10.7;77.1
68873;BME280;55907;50.806;12.882;2024-03-02T08:43:13;964.6;;;10.7;77.9
68873;BME280;55907;50.806;12.882;2024-03-02T08:46:14;964.6;;;10.8;77.5
68873;BME280;55907;50.806;12.882;2024-03-02T08:49:14;964.6;;;10.8;77.2
68873;BME280;55907;50.806;12.882;2024-03-02T08:52:15;964.7;;;10.8;77.5
68873;BME280;55907;50.806;12.882;2024-03-02T08:55:16;964.7;;;10.8;76.7
68873;BME280;55907;50.806;12.882;2024-03-02T08:58:16;964.7;;;10.9;76.5
68873;BME280;55907;50.806;12.882;2024-03-02T09:01:18;964.8;;;10.8;76.8
68873;BME280;55907;50.806;12.882;2024-03-02T09:04:18;964.8;;;10.9;76.9
68873;BME280;55907;50.806;12.882;2024-03-02T09:07:19;964.9;;;10.8;76.9
68873;BME280;55907;50.806;12.882;2024-03-02T09:10:19;964.9;;;10.8;76.7
68873;BME280;55907;50.806;12.882;2024-03-02T09:13:20;964.9;;;10.8;76.2
68873;BME280;55907;50.806;12.882;2024-03-02T09:16:21;964.9;;;11.0;75.8
68873;BME280;55907;50.806;12.882;2024-03-02T09:19:24;964.9;;;11.0;75.3
68873;BME280;55907;50.806;12.882;2024-03-02T09:22:22;964.9;;;11.1;75.6
68873;BME280;55907;50.806;12.882;2024-03-02T09:25:23;965.0;;;11.0;74.7
68873;BME280;55907;50.806;12.882;2024-03-02T09:28:24;965.0;;;11.1;75.0
68873;BME280;55907;50.806;12.882;2024-03-02T09:31:25;965.0;;;11.0;75.4
68873;BME280;55907;50.806;12.882;2024-03-02T09:34:25;964.9;;;11.1;74.9
68873;BME280;55907;50.806;12.882;2024-03-02T09:37:26;964.9;;;11.1;74.8
68873;BME280;55907;50.806;12.882;2024-03-02T09:40:27;964.9;;;11.2;74.5
68873;BME280;55907;50.806;12.882;2024-03-02T09:43:28;964.9;;;11.3;73.6
68873;BME280;55907;50.806;12.882;2024-03-02T09:46:28;964.8;;;11.4;72.9
68873;BME280;55907;50.806;12.882;2024-03-02T09:49:29;964.9;;;11.5;72.7
68873;BME280;55907;50.806;12.882;2024-03-02T09:52:30;964.9;;;11.7;71.4
68873;BME280;55907;50.806;12.882;2024-03-02T09:55:31;964.9;;;11.9;71.0
68873;BME280;55907;50.806;12.882;2024-03-02T09:58:31;964.9;;;12.2;70.1
68873;BME280;55907;50.806;12.882;2024-03-02T10:01:32;964.9;;;12.5;68.2
68873;BME280;55907;50.806;12.882;2024-03-02T10:04:33;964.9;;;12.6;67.2
68873;BME280;55907;50.806;12.882;2024-03-02T10:07:34;964.8;;;12.7;67.1
68873;BME280;55907;50.806;12.882;2024-03-02T10:10:35;964.8;;;13.1;65.8
68873;BME280;55907;50.806;12.882;2024-03-02T10:13:35;964.8;;;13.2;64.0
68873;BME280;55907;50.806;12.882;2024-03-02T10:16:37;964.8;;;13.4;65.0
68873;BME280;55907;50.806;12.882;2024-03-02T10:19:37;964.7;;;13.5;63.9
68873;BME280;55907;50.806;12.882;2024-03-02T10:22:37;964.8;;;13.8;62.9
68873;BME280;55907;50.806;12.882;2024-03-02T10:25:38;964.8;;;13.9;61.6
68873;BME280;55907;50.806;12.882;2024-03-02T10:28:45;964.7;;;14.0;61.2
68873;BME280;55907;50.806;12.882;2024-03-02T10:31:40;964.8;;;14.2;60.0
68873;BME280;55907;50.806;12.882;2024-03-02T10:34:41;964.7;;;14.9;59.5
68873;BME280;55907;50.806;12.882;2024-03-02T10:37:41;964.7;;;15.0;57.6
68873;BME280;55907;50.806;12.882;2024-03-02T10:40:46;964.7;;;15.1;57.3
68873;BME280;55907;50.806;12.882;2024-03-02T10:43:42;964.6;;;15.9;56.2
68873;BME280;55907;50.806;12.882;2024-03-02T10:46:45;964.6;;;17.6;52.9
68873;BME280;55907;50.806;12.882;2024-03-02T10:49:46;964.6;;;18.4;48.3
68873;BME280;55907;50.806;12.882;2024-03-02T10:52:45;964.6;;;18.8;45.9
68873;BME280;55907;50.806;12.882;2024-03-02T10:55:47;964.5;;;19.6;47.1
68873;BME280;55907;50.806;12.882;2024-03-02T10:58:46;964.6;;;19.6;45.1
68873;BME280;55907;50.806;12.882;2024-03-02T11:01:48;964.5;;;19.6;45.1
68873;BME280;55907;50.806;12.882;2024-03-02T11:04:47;964.5;;;19.8;45.1
68873;BME280;55907;50.806;12.882;2024-03-02T11:07:48;964.5;;;20.0;45.0
68873;BME280;55907;50.806;12.882;2024-03-02T11:10:50;964.4;;;19.7;44.4
68873;BME280;55907;50.806;12.882;2024-03-02T11:13:50;964.4;;;19.8;44.7
68873;BME280;55907;50.806;12.882;2024-03-02T11:16:51;964.4;;;20.3;44.4
68873;BME280;55907;50.806;12.882;2024-03-02T11:19:51;964.4;;;20.7;43.5
68873;BME280;55907;50.806;12.882;2024-03-02T11:22:51;964.5;;;20.7;42.9
68873;BME280;55907;50.806;12.882;2024-03-02T11:25:52;964.5;;;20.8;41.9
68873;BME280;55907;50.806;12.882;2024-03-02T11:28:52;964.5;;;20.8;42.1
68873;BME280;55907;50.806;12.882;2024-03-02T11:32:01;964.5;;;20.4;41.6
68873;BME280;55907;50.806;12.882;2024-03-02T11:34:54;964.4;;;20.5;42.4
68873;BME280;55907;50.806;12.882;2024-03-02T11:37:55;964.5;;;20.2;42.1
68873;BME280;55907;50.806;12.882;2024-03-02T11:40:55;964.4;;;20.1;42.2
68873;BME280;55907;50.806;12.882;2024-03-02T11:43:56;964.4;;;19.6;42.7
68873;BME280;55907;50.806;12.882;2024-03-02T11:46:58;964.5;;;19.1;43.2
68873;BME280;55907;50.806;12.882;2024-03-02T11:49:58;964.4;;;18.7;44.0
68873;BME280;55907;50.806;12.882;2024-03-02T11:52:58;964.4;;;18.4;44.3
68873;BME280;55907;50.806;12.882;2024-03-02T11:59:00;964.3;;;18.1;45.4
68873;BME280;55907;50.806;12.882;2024-03-02T12:02:00;964.4;;;17.9;46.0
68873;BME280;55907;50.806;12.882;2024-03-02T12:05:02;964.3;;;17.7;44.4
68873;BME280;55907;50.806;12.882;2024-03-02T12:08:02;964.3;;;17.9;44.8
68873;BME280;55907;50.806;12.882;2024-03-02T12:11:02;964.3;;;18.3;43.7
68873;BME280;55907;50.806;12.882;2024-03-02T12:14:03;964.2;;;18.6;43.1
68873;BME280;55907;50.806;12.882;2024-03-02T12:17:05;964.2;;;18.5;42.2
68873;BME280;55907;50.806;12.882;2024-03-02T12:20:04;964.2;;;18.3;42.3
68873;BME280;55907;50.806;12.882;2024-03-02T12:23:05;964.2;;;18.3;42.8
68873;BME280;55907;50.806;12.882;2024-03-02T12:26:06;964.1;;;18.7;42.6
68873;BME280;55907;50.806;12.882;2024-03-02T12:29:06;964.1;;;18.6;42.8
68873;BME280;55907;50.806;12.882;2024-03-02T12:32:07;964.1;;;18.4;41.7
68873;BME280;55907;50.806;12.882;2024-03-02T12:35:08;964.1;;;18.3;42.0
68873;BME280;55907;50.806;12.882;2024-03-02T12:38:09;964.1;;;18.0;42.7
68873;BME280;55907;50.806;12.882;2024-03-02T12:41:09;964.1;;;18.1;43.5
68873;BME280;55907;50.806;12.882;2024-03-02T12:44:10;964.1;;;17.7;43.6
68873;BME280;55907;50.806;12.882;2024-03-02T12:47:11;964.1;;;17.8;44.7
68873;BME280;55907;50.806;12.882;2024-03-02T12:50:11;964.0;;;17.7;45.0
68873;BME280;55907;50.806;12.882;2024-03-02T12:53:14;964.0;;;17.6;44.8
68873;BME280;55907;50.806;12.882;2024-03-02T12:56:13;963.9;;;17.8;44.7
68873;BME280;55907;50.806;12.882;2024-03-02T12:59:18;963.9;;;17.7;45.9
68873;BME280;55907;50.806;12.882;2024-03-02T13:02:16;963.9;;;17.7;45.3
68873;BME280;55907;50.806;12.882;2024-03-02T13:05:15;963.9;;;17.7;44.8
68873;BME280;55907;50.806;12.882;2024-03-02T13:08:16;963.9;;;17.7;43.7
68873;BME280;55907;50.806;12.882;2024-03-02T13:11:16;963.9;;;17.7;44.1
68873;BME280;55907;50.806;12.882;2024-03-02T13:14:17;963.8;;;17.8;44.3
68873;BME280;55907;50.806;12.882;2024-03-02T13:17:18;963.8;;;17.8;44.6
68873;BME280;55907;50.806;12.882;2024-03-02T13:20:18;963.8;;;17.8;44.8
68873;BME280;55907;50.806;12.882;2024-03-02T13:23:19;963.8;;;17.8;43.6
68873;BME280;55907;50.806;12.882;2024-03-02T13:26:19;963.8;;;17.9;42.8
68873;BME280;55907;50.806;12.882;2024-03-02T13:29:20;963.7;;;18.1;41.8
68873;BME280;55907;50.806;12.882;2024-03-02T13:32:21;963.8;;;17.9;43.4
68873;BME280;55907;50.806;12.882;2024-03-02T13:35:21;963.8;;;17.9;43.9
68873;BME280;55907;50.806;12.882;2024-03-02T13:38:22;963.7;;;18.1;43.6
68873;BME280;55907;50.806;12.882;2024-03-02T13:41:23;963.7;;;18.0;44.2
68873;BME280;55907;50.806;12.882;2024-03-02T13:44:24;963.7;;;18.0;44.8
68873;BME280;55907;50.806;12.882;2024-03-02T13:47:24;963.7;;;18.0;44.8
68873;BME280;55907;50.806;12.882;2024-03-02T13:50:25;963.7;;;17.8;45.1
68873;BME280;55907;50.806;12.882;2024-03-02T13:53:26;963.7;;;17.6;45.7
68873;BME280;55907;50.806;12.882;2024-03-02T13:56:27;963.7;;;17.6;45.9
68873;BME280;55907;50.806;12.882;2024-03-02T13:59:27;963.8;;;17.8;46.5
68873;BME280;55907;50.806;12.882;2024-03-02T14:02:28;963.7;;;18.0;46.0
68873;BME280;55907;50.806;12.882;2024-03-02T14:05:29;963.6;;;18.2;45.8
68873;BME280;55907;50.806;12.882;2024-03-02T14:08:29;963.6;;;17.9;46.2
68873;BME280;55907;50.806;12.882;2024-03-02T14:11:30;963.6;;;17.8;46.8
68873;BME280;55907;50.806;12.882;2024-03-02T14:14:31;963.6;;;17.6;47.0
68873;BME280;55907;50.806;12.882;2024-03-02T14:17:32;963.6;;;17.3;47.7
68873;BME280;55907;50.806;12.882;2024-03-02T14:20:32;963.6;;;17.0;48.6
68873;BME280;55907;50.806;12.882;2024-03-02T14:23:33;963.5;;;16.7;49.2
68873;BME280;55907;50.806;12.882;2024-03-02T14:26:34;963.5;;;16.6;49.6
68873;BME280;55907;50.806;12.882;2024-03-02T14:29:34;963.5;;;16.3;49.9
68873;BME280;55907;50.806;12.882;2024-03-02T14:32:35;963.5;;;16.2;50.4
68873;BME280;55907;50.806;12.882;2024-03-02T14:38:37;963.5;;;16.0;51.6
68873;BME280;55907;50.806;12.882;2024-03-02T14:41:37;963.5;;;15.7;52.1
68873;BME280;55907;50.806;12.882;2024-03-02T14:44:38;963.4;;;15.5;52.8
68873;BME280;55907;50.806;12.882;2024-03-02T14:47:38;963.4;;;15.5;53.0
68873;BME280;55907;50.806;12.882;2024-03-02T14:50:39;963.4;;;15.3;53.5
68873;BME280;55907;50.806;12.882;2024-03-02T14:53:40;963.4;;;15.2;54.1
68873;BME280;55907;50.806;12.882;2024-03-02T14:56:41;963.3;;;15.3;54.2
68873;BME280;55907;50.806;12.882;2024-03-02T14:59:41;963.3;;;15.3;54.2
68873;BME280;55907;50.806;12.882;2024-03-02T15:02:42;963.3;;;15.2;54.9
68873;BME280;55907;50.806;12.882;2024-03-02T15:05:43;963.3;;;14.9;55.3
68873;BME280;55907;50.806;12.882;2024-03-02T15:08:44;963.3;;;14.6;56.1
68873;BME280;55907;50.806;12.882;2024-03-02T15:11:44;963.3;;;14.6;56.3
68873;BME280;55907;50.806;12.882;2024-03-02T15:14:45;963.2;;;14.7;56.1
68873;BME280;55907;50.806;12.882;2024-03-02T15:17:45;963.3;;;14.7;56.4
68873;BME280;55907;50.806;12.882;2024-03-02T15:20:46;963.3;;;14.6;56.6
68873;BME280;55907;50.806;12.882;2024-03-02T15:23:47;963.3;;;14.3;57.4
68873;BME280;55907;50.806;12.882;2024-03-02T15:26:48;963.3;;;14.0;58.2
68873;BME280;55907;50.806;12.882;2024-03-02T15:29:48;963.3;;;13.9;58.2
68873;BME280;55907;50.806;12.882;2024-03-02T15:32:49;963.3;;;13.8;58.7
68873;BME280;55907;50.806;12.882;2024-03-02T15:35:50;963.3;;;13.6;59.1
68873;BME280;55907;50.806;12.882;2024-03-02T15:38:50;963.3;;;13.6;59.4
68873;BME280;55907;50.806;12.882;2024-03-02T15:41:51;963.4;;;13.4;59.9
68873;BME280;55907;50.806;12.882;2024-03-02T15:44:52;963.3;;;13.3;60.4
68873;BME280;55907;50.806;12.882;2024-03-02T15:47:52;963.3;;;13.3;60.1
68873;BME280;55907;50.806;12.882;2024-03-02T15:50:53;963.3;;;13.2;60.7
68873;BME280;55907;50.806;12.882;2024-03-02T15:53:54;963.4;;;13.0;61.1
68873;BME280;55907;50.806;12.882;2024-03-02T15:56:55;963.3;;;12.5;62.4
68873;BME280;55907;50.806;12.882;2024-03-02T15:59:55;963.4;;;12.3;63.2
68873;BME280;55907;50.806;12.882;2024-03-02T16:02:56;963.3;;;12.1;64.1
68873;BME280;55907;50.806;12.882;2024-03-02T16:05:57;963.2;;;12.1;64.4
68873;BME280;55907;50.806;12.882;2024-03-02T16:08:58;963.2;;;11.9;65.3
68873;BME280;55907;50.806;12.882;2024-03-02T16:11:58;963.2;;;11.8;65.7
68873;BME280;55907;50.806;12.882;2024-03-02T16:14:59;963.2;;;11.8;65.4
68873;BME280;55907;50.806;12.882;2024-03-02T16:18:00;963.2;;;11.8;65.6
68873;BME280;55907;50.806;12.882;2024-03-02T16:21:00;963.3;;;11.9;65.3
68873;BME280;55907;50.806;12.882;2024-03-02T16:24:01;963.3;;;11.6;66.3
68873;BME280;55907;50.806;12.882;2024-03-02T16:27:02;963.3;;;11.6;66.7
68873;BME280;55907;50.806;12.882;2024-03-02T16:30:03;963.2;;;11.5;67.3
68873;BME280;55907;50.806;12.882;2024-03-02T16:33:04;963.3;;;11.3;68.1
68873;BME280;55907;50.806;12.882;2024-03-02T16:36:04;963.2;;;11.2;68.3
68873;BME280;55907;50.806;12.882;2024-03-02T16:39:05;963.3;;;11.2;69.1
68873;BME280;55907;50.806;12.882;2024-03-02T16:42:06;963.3;;;11.1;69.4
68873;BME280;55907;50.806;12.882;2024-03-02T16:45:07;963.3;;;10.9;70.2
68873;BME280;55907;50.806;12.882;2024-03-02T16:48:07;963.3;;;11.0;70.4
68873;BME280;55907;50.806;12.882;2024-03-02T16:51:08;963.3;;;10.8;70.5
68873;BME280;55907;50.806;12.882;2024-03-02T16:54:09;963.4;;;10.7;70.8
68873;BME280;55907;50.806;12.882;2024-03-02T16:57:09;963.4;;;10.6;71.6
68873;BME280;55907;50.806;12.882;2024-03-02T17:00:11;963.4;;;10.6;71.4
68873;BME280;55907;50.806;12.882;2024-03-02T17:03:11;963.4;;;10.6;71.9
68873;BME280;55907;50.806;12.882;2024-03-02T17:06:11;963.4;;;10.6;71.5
68873;BME280;55907;50.806;12.882;2024-03-02T17:09:12;963.5;;;10.7;71.1